createdAt,value
2018-06-16T00:01:22.842Z,90.30
2018-06-16T00:06:19.379Z,90.40
2018-06-16T00:08:47.762Z,90.40
2018-06-16T00:11:16.154Z,90.50
2018-06-16T00:13:45.109Z,90.70
2018-06-16T00:16:14.690Z,90.60
2018-06-16T00:18:43.037Z,90.60
2018-06-16T00:23:39.439Z,90.90
2018-06-16T00:26:07.771Z,90.90
2018-06-16T00:28:36.838Z,91.00
2018-06-16T00:31:05.206Z,91.00
2018-06-16T00:38:29.466Z,91.20
2018-06-16T00:40:57.650Z,91.40
2018-06-16T00:43:25.879Z,91.30
2018-06-16T00:45:55.215Z,91.40
2018-06-16T00:48:23.489Z,91.50
2018-06-16T00:50:51.778Z,91.60
2018-06-16T00:53:20.008Z,91.40
2018-06-16T00:58:16.357Z,91.50
2018-06-16T01:00:44.626Z,91.50
2018-06-16T01:03:12.943Z,91.60
2018-06-16T01:05:41.178Z,91.80
2018-06-16T01:08:09.449Z,91.90
2018-06-16T01:10:38.379Z,92.10
2018-06-16T01:13:06.711Z,92.20
2018-06-16T01:15:34.955Z,92.30
2018-06-16T01:18:03.279Z,92.40
2018-06-16T01:20:31.647Z,92.50
2018-06-16T01:22:59.863Z,92.50
2018-06-16T01:25:28.058Z,92.40
2018-06-16T01:27:56.315Z,92.40
2018-06-16T01:30:24.684Z,92.50
2018-06-16T01:32:53.023Z,92.50
2018-06-16T01:35:21.230Z,92.40
2018-06-16T01:37:49.440Z,92.50
2018-06-16T01:42:45.907Z,92.70
2018-06-16T01:47:42.323Z,92.90
2018-06-16T01:50:10.612Z,92.90
2018-06-16T01:52:38.859Z,93.10
2018-06-16T02:00:03.198Z,93.70
2018-06-16T02:02:31.477Z,94.00
2018-06-16T02:07:27.802Z,94.20
2018-06-16T02:09:56.042Z,94.30
2018-06-16T02:12:24.287Z,94.40
2018-06-16T02:14:52.654Z,94.60
2018-06-16T02:22:16.943Z,95.20
2018-06-16T02:24:45.280Z,95.30
2018-06-16T02:29:41.539Z,95.70
2018-06-16T02:32:10.830Z,95.90
2018-06-16T02:34:39.170Z,96.10
2018-06-16T02:37:07.480Z,96.20
2018-06-16T02:39:35.857Z,96.40
2018-06-16T02:42:04.085Z,96.40
2018-06-16T02:44:32.392Z,96.50
2018-06-16T02:47:00.674Z,96.40
2018-06-16T02:49:28.918Z,96.50
2018-06-16T02:51:57.223Z,96.60
2018-06-16T02:54:25.539Z,96.60
2018-06-16T02:56:53.812Z,96.70
2018-06-16T02:59:22.178Z,96.70
2018-06-16T03:01:50.428Z,96.80
2018-06-16T03:04:18.699Z,96.80
2018-06-16T03:06:46.962Z,96.70
2018-06-16T03:09:15.282Z,96.70
2018-06-16T03:11:43.577Z,96.70
2018-06-16T03:14:11.829Z,96.50
2018-06-16T03:16:40.139Z,96.30
2018-06-16T03:19:08.516Z,96.00
2018-06-16T03:21:36.811Z,95.90
2018-06-16T03:24:05.140Z,95.90
2018-06-16T03:26:33.396Z,95.70
2018-06-16T03:29:01.667Z,95.70
2018-06-16T03:31:29.867Z,95.60
2018-06-16T03:33:58.184Z,95.50
2018-06-16T03:36:27.583Z,95.40
2018-06-16T03:38:55.739Z,95.50
2018-06-16T03:41:23.968Z,95.10
2018-06-16T03:43:52.351Z,95.00
2018-06-16T03:46:20.592Z,95.00
2018-06-16T03:51:16.848Z,94.90
2018-06-16T03:56:13.091Z,94.80
2018-06-16T03:58:41.419Z,95.00
2018-06-16T04:01:09.692Z,94.60
2018-06-16T04:03:37.949Z,94.30
2018-06-16T04:06:06.357Z,94.20
2018-06-16T04:08:34.609Z,94.00
2018-06-16T04:11:02.950Z,93.90
2018-06-16T04:13:31.185Z,93.80
2018-06-16T04:15:59.503Z,93.70
2018-06-16T04:18:27.708Z,93.70
2018-06-16T04:20:56.057Z,93.60
2018-06-16T04:23:24.402Z,93.50
2018-06-16T04:25:52.680Z,93.40
2018-06-16T04:28:20.928Z,93.30
2018-06-16T04:30:49.163Z,93.20
2018-06-16T04:33:17.408Z,93.10
2018-06-16T04:35:45.657Z,93.20
2018-06-16T04:40:41.852Z,93.10
2018-06-16T04:43:10.052Z,93.10
2018-06-16T04:45:38.549Z,93.10
2018-06-16T04:48:07.422Z,92.90
2018-06-16T04:55:31.764Z,92.20
2018-06-16T04:57:59.986Z,92.20
2018-06-16T05:00:28.183Z,92.40
2018-06-16T05:02:56.416Z,91.70
2018-06-16T05:05:24.613Z,91.90
2018-06-16T05:07:52.890Z,91.70
2018-06-16T05:10:21.090Z,91.60
2018-06-16T05:12:49.454Z,91.10
2018-06-16T05:15:17.724Z,90.80
2018-06-16T05:17:45.982Z,90.90
2018-06-16T05:20:14.208Z,90.50
2018-06-16T05:22:42.454Z,90.30
2018-06-16T05:25:10.786Z,90.30
2018-06-16T05:27:38.999Z,90.10
2018-06-16T05:30:07.251Z,90.20
2018-06-16T05:32:35.595Z,89.70
2018-06-16T05:35:03.857Z,89.80
2018-06-16T05:37:32.564Z,89.90
2018-06-16T05:40:00.827Z,88.80
2018-06-16T05:42:29.070Z,88.70
2018-06-16T05:44:58.227Z,87.50
2018-06-16T05:47:26.467Z,87.10
2018-06-16T05:52:22.970Z,87.40
2018-06-16T05:54:51.183Z,87.10
2018-06-16T05:57:19.570Z,87.10
2018-06-16T05:59:47.777Z,86.60
2018-06-16T06:02:16.036Z,86.40
2018-06-16T06:04:44.342Z,86.00
2018-06-16T06:07:12.863Z,86.00
2018-06-16T06:09:41.160Z,84.90
2018-06-16T06:12:09.468Z,85.10
2018-06-16T06:19:33.799Z,84.40
2018-06-16T06:22:02.078Z,83.50
2018-06-16T06:24:30.384Z,83.70
2018-06-16T06:26:58.670Z,83.20
2018-06-16T06:29:26.875Z,83.10
2018-06-16T06:31:55.059Z,83.10
2018-06-16T06:34:23.383Z,82.80
2018-06-16T06:36:51.716Z,83.10
2018-06-16T06:39:20.025Z,82.50
2018-06-16T06:41:48.227Z,82.20
2018-06-16T06:46:44.427Z,81.70
2018-06-16T06:49:12.723Z,80.90
2018-06-16T06:51:41.074Z,80.00
2018-06-16T06:54:09.271Z,80.40
2018-06-16T06:56:37.490Z,79.40
2018-06-16T06:59:05.717Z,79.80
2018-06-16T07:01:33.969Z,79.10
2018-06-16T07:04:02.256Z,79.10
2018-06-16T07:06:30.443Z,78.60
2018-06-16T07:08:58.697Z,78.60
2018-06-16T07:13:54.888Z,78.30
2018-06-16T07:16:23.091Z,77.50
2018-06-16T07:21:20.075Z,76.50
2018-06-16T07:23:48.399Z,76.30
2018-06-16T07:26:17.716Z,76.10
2018-06-16T07:28:46.040Z,76.10
2018-06-16T07:33:42.375Z,76.60
2018-06-16T07:36:10.664Z,75.40
2018-06-16T07:38:38.892Z,74.80
2018-06-16T07:41:07.157Z,74.50
2018-06-16T07:43:35.399Z,73.80
2018-06-16T07:46:06.621Z,73.50
2018-06-16T07:48:35.037Z,73.80
2018-06-16T07:51:03.263Z,74.00
2018-06-16T07:53:32.115Z,73.40
2018-06-16T07:56:00.347Z,73.00
2018-06-16T07:58:28.655Z,72.60
2018-06-16T08:00:56.920Z,71.60
2018-06-16T08:03:25.235Z,70.70
2018-06-16T08:05:53.637Z,71.00
2018-06-16T08:08:21.951Z,71.10
2018-06-16T08:13:18.307Z,71.10
2018-06-16T08:15:46.551Z,70.30
2018-06-16T08:18:14.907Z,70.10
2018-06-16T08:23:11.251Z,70.50
2018-06-16T08:25:39.539Z,69.10
2018-06-16T08:28:08.194Z,66.40
2018-06-16T08:30:36.481Z,65.90
2018-06-16T08:33:04.794Z,65.70
2018-06-16T08:35:33.095Z,66.30
2018-06-16T08:38:02.824Z,65.80
2018-06-16T08:40:31.091Z,65.40
2018-06-16T08:42:59.810Z,64.50
2018-06-16T08:45:28.598Z,64.00
2018-06-16T08:47:56.910Z,61.90
2018-06-16T08:50:25.205Z,61.50
2018-06-16T08:52:53.939Z,61.20
2018-06-16T08:57:51.083Z,61.80
2018-06-16T09:00:19.390Z,61.80
2018-06-16T09:02:47.643Z,61.70
2018-06-16T09:05:15.893Z,62.80
2018-06-16T09:12:40.315Z,61.60
2018-06-16T09:15:08.597Z,61.70
2018-06-16T09:17:36.866Z,59.90
2018-06-16T09:20:05.147Z,60.60
2018-06-16T09:22:33.413Z,59.70
2018-06-16T09:25:01.636Z,60.40
2018-06-16T09:27:29.930Z,59.80
2018-06-16T09:29:58.459Z,59.40
2018-06-16T09:32:26.665Z,58.40
2018-06-16T09:37:22.930Z,57.70
2018-06-16T09:39:51.240Z,56.70
2018-06-16T09:42:19.467Z,57.10
2018-06-16T09:44:47.763Z,56.50
2018-06-16T09:47:16.044Z,56.70
2018-06-16T09:49:44.256Z,55.90
2018-06-16T09:52:12.459Z,55.60
2018-06-16T09:54:40.734Z,55.50
2018-06-16T09:57:08.997Z,55.40
2018-06-16T09:59:37.376Z,55.50
2018-06-16T10:02:05.848Z,54.50
2018-06-16T10:04:34.080Z,55.20
2018-06-16T10:07:02.387Z,55.90
2018-06-16T10:09:30.744Z,55.30
2018-06-16T10:11:59.115Z,54.90
2018-06-16T10:14:27.319Z,55.20
2018-06-16T10:16:56.094Z,52.80
2018-06-16T10:19:24.288Z,51.80
2018-06-16T10:21:52.503Z,51.40
2018-06-16T10:24:20.840Z,51.00
2018-06-16T10:29:17.133Z,49.10
2018-06-16T10:31:45.416Z,49.30
2018-06-16T10:34:14.008Z,48.30
2018-06-16T10:36:42.311Z,46.60
2018-06-16T10:39:10.855Z,46.30
2018-06-16T10:41:39.847Z,45.70
2018-06-16T10:44:08.452Z,46.00
2018-06-16T10:46:37.515Z,46.50
2018-06-16T10:49:06.764Z,46.60
2018-06-16T10:51:35.197Z,47.20
2018-06-16T10:54:03.696Z,47.00
2018-06-16T10:58:59.954Z,47.30
2018-06-16T11:01:28.244Z,46.50
2018-06-16T11:03:56.527Z,45.20
2018-06-16T11:06:24.833Z,45.30
2018-06-16T11:11:21.250Z,44.80
2018-06-16T11:13:50.660Z,45.20
2018-06-16T11:16:18.988Z,46.00
2018-06-16T11:18:47.370Z,46.00
2018-06-16T11:21:15.736Z,45.10
2018-06-16T11:23:44.214Z,44.10
2018-06-16T11:26:12.568Z,43.00
2018-06-16T11:28:40.991Z,42.20
2018-06-16T11:33:38.911Z,40.80
2018-06-16T11:36:07.280Z,40.70
2018-06-16T11:41:03.914Z,41.00
2018-06-16T11:43:32.243Z,40.10
2018-06-16T11:46:00.495Z,39.50
2018-06-16T11:48:28.746Z,38.40
2018-06-16T11:50:57.032Z,38.20
2018-06-16T11:53:25.365Z,38.30
2018-06-16T11:55:53.699Z,38.40
2018-06-16T11:58:22.066Z,38.80
2018-06-16T12:00:50.497Z,39.10
2018-06-16T12:03:19.041Z,39.30
2018-06-16T12:05:47.420Z,39.10
2018-06-16T12:08:15.968Z,39.10
2018-06-16T12:10:44.323Z,39.50
2018-06-16T12:13:12.695Z,38.30
2018-06-16T12:15:41.059Z,38.20
2018-06-16T12:18:09.416Z,39.00
2018-06-16T12:20:37.639Z,38.90
2018-06-16T12:23:05.955Z,39.20
2018-06-16T12:25:34.322Z,39.90
2018-06-16T12:28:02.578Z,40.10
2018-06-16T12:30:30.891Z,40.60
2018-06-16T12:37:55.613Z,41.00
2018-06-16T12:40:24.172Z,40.30
2018-06-16T12:42:52.543Z,40.60
2018-06-16T12:47:50.293Z,41.20
2018-06-16T12:50:18.971Z,41.50
2018-06-16T12:52:47.743Z,41.60
2018-06-16T12:55:16.095Z,42.20
2018-06-16T12:57:44.752Z,42.40
2018-06-16T13:00:13.020Z,42.70
2018-06-16T13:05:10.222Z,43.70
2018-06-16T13:07:38.958Z,43.50
2018-06-16T13:10:07.432Z,43.40
2018-06-16T13:12:35.735Z,43.60
2018-06-16T13:15:04.596Z,44.40
2018-06-16T13:17:33.193Z,43.30
2018-06-16T13:20:01.519Z,44.30
2018-06-16T13:22:29.851Z,42.90
2018-06-16T13:24:58.163Z,42.90
2018-06-16T13:27:26.932Z,43.20
2018-06-16T13:32:23.842Z,42.80
2018-06-16T13:34:53.748Z,42.40
2018-06-16T13:37:22.039Z,42.40
2018-06-16T13:39:50.298Z,41.70
2018-06-16T13:42:20.227Z,42.00
2018-06-16T13:44:49.067Z,41.90
2018-06-16T13:47:18.507Z,41.30
2018-06-16T13:49:47.730Z,41.70
2018-06-16T13:52:16.257Z,42.20
2018-06-16T13:54:44.697Z,40.80
2018-06-16T13:57:13.043Z,40.90
2018-06-16T13:59:41.704Z,40.50
2018-06-16T14:02:10.163Z,40.40
2018-06-16T14:04:38.391Z,41.00
2018-06-16T14:12:03.611Z,40.90
2018-06-16T14:14:32.691Z,41.50
2018-06-16T14:17:03.151Z,42.20
2018-06-16T14:19:31.591Z,42.40
2018-06-16T14:22:01.963Z,42.90
2018-06-16T14:24:30.954Z,43.50
2018-06-16T14:29:28.470Z,43.40
2018-06-16T14:31:57.596Z,43.10
2018-06-16T14:34:26.003Z,42.00
2018-06-16T14:36:54.456Z,42.30
2018-06-16T14:39:22.885Z,41.20
2018-06-16T14:41:51.399Z,41.80
2018-06-16T14:44:19.819Z,40.80
2018-06-16T14:46:48.310Z,41.40
2018-06-16T14:49:16.762Z,40.80
2018-06-16T14:51:46.255Z,40.80
2018-06-16T14:54:14.965Z,41.10
2018-06-16T14:56:43.379Z,41.60
2018-06-16T14:59:12.076Z,41.50
2018-06-16T15:01:42.051Z,41.80
2018-06-16T15:04:10.770Z,41.30
2018-06-16T15:06:39.792Z,41.70
2018-06-16T15:09:09.583Z,41.10
2018-06-16T15:11:38.078Z,40.70
2018-06-16T15:14:07.972Z,40.30
2018-06-16T15:16:41.804Z,40.20
2018-06-16T15:19:10.914Z,41.30
2018-06-16T15:21:39.606Z,41.00
2018-06-16T15:24:08.054Z,41.60
2018-06-16T15:26:36.431Z,41.50
2018-06-16T15:29:07.140Z,41.80
2018-06-16T15:31:35.761Z,40.90
2018-06-16T15:34:04.805Z,40.30
2018-06-16T15:36:33.745Z,38.50
2018-06-16T15:39:02.694Z,37.80
2018-06-16T15:41:31.161Z,39.40
2018-06-16T15:44:00.744Z,38.50
2018-06-16T15:46:29.695Z,38.40
2018-06-16T15:51:26.279Z,39.40
2018-06-16T15:56:22.840Z,38.70
2018-06-16T15:58:51.235Z,39.80
2018-06-16T16:01:19.667Z,38.00
2018-06-16T16:03:48.331Z,39.00
2018-06-16T16:06:16.948Z,38.90
2018-06-16T16:08:45.409Z,39.10
2018-06-16T16:11:14.383Z,39.10
2018-06-16T16:13:43.173Z,39.10
2018-06-16T16:18:40.432Z,38.30
2018-06-16T16:21:08.843Z,38.40
2018-06-16T16:26:05.647Z,36.90
2018-06-16T16:28:33.998Z,36.80
2018-06-16T16:31:03.121Z,37.30
2018-06-16T16:33:37.186Z,36.80
2018-06-16T16:36:05.924Z,37.40
2018-06-16T16:38:35.585Z,37.00
2018-06-16T16:41:03.910Z,36.00
2018-06-16T16:43:33.797Z,36.20
2018-06-16T16:48:30.576Z,35.80
2018-06-16T16:53:27.622Z,37.10
2018-06-16T16:55:55.944Z,36.70
2018-06-16T16:58:25.975Z,36.90
2018-06-16T17:00:54.589Z,37.70
2018-06-16T17:03:23.841Z,38.00
2018-06-16T17:05:52.997Z,36.00
2018-06-16T17:08:21.512Z,36.40
2018-06-16T17:13:18.137Z,36.50
2018-06-16T17:15:46.482Z,36.20
2018-06-16T17:18:16.790Z,35.80
2018-06-16T17:23:13.461Z,37.10
2018-06-16T17:25:41.770Z,37.20
2018-06-16T17:28:10.854Z,38.20
2018-06-16T17:30:42.990Z,38.60
2018-06-16T17:33:11.645Z,39.30
2018-06-16T17:35:40.461Z,39.20
2018-06-16T17:38:09.239Z,39.70
2018-06-16T17:40:38.495Z,40.00
2018-06-16T17:43:07.293Z,40.90
2018-06-16T17:45:36.196Z,41.10
2018-06-16T17:48:04.886Z,41.00
2018-06-16T17:50:33.840Z,41.60
2018-06-16T17:53:02.659Z,42.20
2018-06-16T17:55:32.050Z,42.50
2018-06-16T17:58:01.607Z,43.00
2018-06-16T18:00:29.892Z,43.60
2018-06-16T18:02:58.418Z,44.40
2018-06-16T18:05:27.455Z,44.40
2018-06-16T18:07:56.109Z,45.20
2018-06-16T18:10:25.140Z,45.50
2018-06-16T18:12:54.300Z,45.80
2018-06-16T18:15:22.739Z,46.50
2018-06-16T18:17:52.320Z,46.40
2018-06-16T18:20:20.621Z,46.50
2018-06-16T18:22:50.470Z,47.10
2018-06-16T18:25:20.179Z,47.10
2018-06-16T18:30:16.872Z,47.30
2018-06-16T18:32:45.478Z,47.40
2018-06-16T18:35:15.336Z,48.50
2018-06-16T18:37:43.791Z,48.10
2018-06-16T18:42:41.088Z,48.50
2018-06-16T18:45:10.971Z,48.80
2018-06-16T18:47:40.990Z,49.20
2018-06-16T18:50:09.684Z,49.60
2018-06-16T18:52:38.047Z,49.30
2018-06-16T18:57:35.296Z,50.10
2018-06-16T19:00:04.264Z,50.10
2018-06-16T19:02:32.803Z,50.10
2018-06-16T19:05:01.661Z,50.30
2018-06-16T19:07:30.161Z,50.40
2018-06-16T19:09:58.760Z,50.90
2018-06-16T19:12:27.211Z,50.90
2018-06-16T19:14:55.501Z,51.00
2018-06-16T19:17:23.798Z,51.40
2018-06-16T19:19:52.469Z,51.40
2018-06-16T19:22:21.141Z,52.40
2018-06-16T19:24:51.018Z,52.00
2018-06-16T19:27:20.142Z,52.20
2018-06-16T19:29:48.666Z,52.00
2018-06-16T19:32:17.451Z,52.50
2018-06-16T19:34:46.162Z,52.40
2018-06-16T19:37:15.053Z,52.90
2018-06-16T19:42:12.374Z,53.00
2018-06-16T19:44:40.868Z,53.10
2018-06-16T19:47:09.515Z,53.40
2018-06-16T19:52:07.362Z,53.80
2018-06-16T19:54:35.771Z,53.70
2018-06-16T19:57:04.106Z,53.90
2018-06-16T19:59:32.593Z,54.00
2018-06-16T20:02:04.530Z,54.50
2018-06-16T20:04:33.187Z,54.20
2018-06-16T20:07:01.670Z,54.80
2018-06-16T20:09:30.308Z,54.60
2018-06-16T20:11:58.567Z,54.60
2018-06-16T20:14:26.861Z,54.60
2018-06-16T20:16:55.153Z,54.60
2018-06-16T20:19:23.702Z,54.70
2018-06-16T20:21:51.976Z,54.80
2018-06-16T20:26:48.698Z,55.40
2018-06-16T20:29:17.478Z,55.20
2018-06-16T20:31:46.988Z,55.50
2018-06-16T20:34:15.349Z,55.60
2018-06-16T20:36:43.996Z,55.60
2018-06-16T20:39:12.539Z,56.00
2018-06-16T20:44:09.357Z,56.10
2018-06-16T20:46:37.679Z,56.40
2018-06-16T20:49:07.191Z,56.40
2018-06-16T20:51:36.039Z,56.40
2018-06-16T20:54:04.510Z,56.20
2018-06-16T21:01:29.199Z,56.20
2018-06-16T21:06:27.097Z,56.70
2018-06-16T21:08:55.621Z,56.40
2018-06-16T21:11:23.870Z,56.60
2018-06-16T21:13:52.751Z,56.70
2018-06-16T21:16:21.203Z,56.90
2018-06-16T21:18:50.972Z,57.20
2018-06-16T21:21:20.475Z,57.80
2018-06-16T21:23:48.971Z,57.80
2018-06-16T21:26:18.401Z,58.00
2018-06-16T21:28:46.742Z,58.40
2018-06-16T21:33:43.836Z,58.80
2018-06-16T21:38:41.334Z,59.20
2018-06-16T21:43:39.561Z,59.40
2018-06-16T21:46:08.173Z,59.50
2018-06-16T21:48:36.615Z,59.80
2018-06-16T21:51:05.826Z,60.00
2018-06-16T21:53:34.853Z,60.40
2018-06-16T21:56:03.994Z,60.70
2018-06-16T21:58:32.949Z,61.00
2018-06-16T22:03:30.265Z,61.00
2018-06-16T22:08:34.392Z,61.20
2018-06-16T22:11:03.857Z,61.30
2018-06-16T22:13:33.172Z,61.40
2018-06-16T22:16:01.971Z,61.70
2018-06-16T22:21:01.571Z,62.20
2018-06-16T22:23:30.511Z,62.30
2018-06-16T22:25:58.817Z,62.20
2018-06-16T22:33:23.425Z,62.50
2018-06-16T22:35:52.100Z,62.60
2018-06-16T22:38:20.805Z,62.30
2018-06-16T22:40:49.264Z,62.30
2018-06-16T22:43:17.592Z,62.30
2018-06-16T22:45:46.472Z,62.30
2018-06-16T22:50:44.260Z,62.10
2018-06-16T22:53:12.529Z,61.90
2018-06-16T22:55:41.085Z,61.60
2018-06-16T22:58:09.617Z,62.10
2018-06-16T23:03:07.184Z,62.70
2018-06-16T23:05:35.451Z,62.10
2018-06-16T23:08:03.745Z,61.90
2018-06-16T23:10:32.065Z,62.00
2018-06-16T23:13:01.039Z,62.20
2018-06-16T23:15:29.862Z,62.30
2018-06-16T23:17:58.471Z,62.60
2018-06-16T23:20:27.131Z,62.50
2018-06-16T23:22:56.032Z,62.40
2018-06-16T23:27:52.491Z,62.60
2018-06-16T23:30:21.366Z,62.90
2018-06-16T23:32:49.692Z,63.20
2018-06-16T23:40:14.181Z,63.50
2018-06-16T23:42:42.594Z,63.60
2018-06-16T23:45:10.947Z,63.70
2018-06-16T23:50:09.120Z,63.90
2018-06-16T23:52:37.666Z,63.80
2018-06-16T23:55:07.730Z,63.90
2018-06-16T23:57:36.798Z,64.00
